sensor_id;sensor_type;location;lat;lon;timestamp;P1;durP1;ratioP1;P2;durP2;ratioP2
4468;SDS011;2247;42.666;23.292;2023-03-20T00:01:55;20.63;;;11.17;;
4468;SDS011;2247;42.666;23.292;2023-03-20T00:04:23;20.90;;;10.87;;
4468;SDS011;2247;42.666;23.292;2023-03-20T00:06:51;19.97;;;12.10;;
4468;SDS011;2247;42.666;23.292;2023-03-20T00:09:17;19.60;;;11.03;;
4468;SDS011;2247;42.666;23.292;2023-03-20T00:11:46;24.07;;;11.43;;
4468;SDS011;2247;42.666;23.292;2023-03-20T00:14:18;21.37;;;11.30;;
4468;SDS011;2247;42.666;23.292;2023-03-20T00:16:48;22.27;;;11.23;;
4468;SDS011;2247;42.666;23.292;2023-03-20T00:19:17;20.60;;;11.63;;
4468;SDS011;2247;42.666;23.292;2023-03-20T00:21:46;22.80;;;11.53;;
4468;SDS011;2247;42.666;23.292;2023-03-20T00:24:14;18.03;;;11.03;;
4468;SDS011;2247;42.666;23.292;2023-03-20T00:26:42;20.47;;;11.50;;
4468;SDS011;2247;42.666;23.292;2023-03-20T00:29:12;20.87;;;12.30;;
4468;SDS011;2247;42.666;23.292;2023-03-20T00:31:45;23.10;;;12.80;;
4468;SDS011;2247;42.666;23.292;2023-03-20T00:34:12;20.50;;;11.50;;
4468;SDS011;2247;42.666;23.292;2023-03-20T00:36:41;23.60;;;11.00;;
4468;SDS011;2247;42.666;23.292;2023-03-20T00:39:09;18.40;;;10.60;;
4468;SDS011;2247;42.666;23.292;2023-03-20T00:41:38;16.30;;;9.93;;
4468;SDS011;2247;42.666;23.292;2023-03-20T00:44:13;15.80;;;9.90;;
4468;SDS011;2247;42.666;23.292;2023-03-20T00:46:45;14.20;;;8.40;;
4468;SDS011;2247;42.666;23.292;2023-03-20T00:49:15;15.60;;;8.17;;
4468;SDS011;2247;42.666;23.292;2023-03-20T00:51:42;14.03;;;8.27;;
4468;SDS011;2247;42.666;23.292;2023-03-20T00:54:12;15.60;;;8.93;;
4468;SDS011;2247;42.666;23.292;2023-03-20T00:56:41;15.93;;;8.60;;
4468;SDS011;2247;42.666;23.292;2023-03-20T00:59:13;14.50;;;8.80;;
4468;SDS011;2247;42.666;23.292;2023-03-20T01:01:43;18.10;;;9.73;;
4468;SDS011;2247;42.666;23.292;2023-03-20T01:04:11;15.70;;;9.30;;
4468;SDS011;2247;42.666;23.292;2023-03-20T01:06:42;14.07;;;8.93;;
4468;SDS011;2247;42.666;23.292;2023-03-20T01:09:09;15.97;;;9.20;;
4468;SDS011;2247;42.666;23.292;2023-03-20T01:11:38;15.20;;;8.63;;
4468;SDS011;2247;42.666;23.292;2023-03-20T01:14:09;15.23;;;8.33;;
4468;SDS011;2247;42.666;23.292;2023-03-20T01:16:39;14.63;;;8.13;;
4468;SDS011;2247;42.666;23.292;2023-03-20T01:19:08;15.27;;;9.20;;
4468;SDS011;2247;42.666;23.292;2023-03-20T01:21:37;12.90;;;7.70;;
4468;SDS011;2247;42.666;23.292;2023-03-20T01:24:04;13.50;;;8.10;;
4468;SDS011;2247;42.666;23.292;2023-03-20T01:26:34;14.23;;;8.30;;
4468;SDS011;2247;42.666;23.292;2023-03-20T01:29:02;14.43;;;8.73;;
4468;SDS011;2247;42.666;23.292;2023-03-20T01:31:30;19.10;;;9.13;;
4468;SDS011;2247;42.666;23.292;2023-03-20T01:33:58;15.40;;;8.80;;
4468;SDS011;2247;42.666;23.292;2023-03-20T01:36:25;19.00;;;9.23;;
4468;SDS011;2247;42.666;23.292;2023-03-20T01:38:53;12.83;;;8.30;;
4468;SDS011;2247;42.666;23.292;2023-03-20T01:41:23;14.40;;;8.07;;
4468;SDS011;2247;42.666;23.292;2023-03-20T01:43:53;12.57;;;7.40;;
4468;SDS011;2247;42.666;23.292;2023-03-20T01:46:22;13.00;;;8.13;;
4468;SDS011;2247;42.666;23.292;2023-03-20T01:48:57;13.90;;;8.07;;
4468;SDS011;2247;42.666;23.292;2023-03-20T01:51:27;14.90;;;8.97;;
4468;SDS011;2247;42.666;23.292;2023-03-20T01:53:57;13.27;;;8.27;;
4468;SDS011;2247;42.666;23.292;2023-03-20T01:56:27;12.90;;;8.13;;
4468;SDS011;2247;42.666;23.292;2023-03-20T01:59:00;14.00;;;8.33;;
4468;SDS011;2247;42.666;23.292;2023-03-20T02:01:32;17.07;;;7.97;;
4468;SDS011;2247;42.666;23.292;2023-03-20T02:04:00;12.43;;;8.40;;
4468;SDS011;2247;42.666;23.292;2023-03-20T02:06:28;18.10;;;9.00;;
4468;SDS011;2247;42.666;23.292;2023-03-20T02:08:55;19.43;;;10.17;;
4468;SDS011;2247;42.666;23.292;2023-03-20T02:11:23;14.27;;;8.77;;
4468;SDS011;2247;42.666;23.292;2023-03-20T02:13:50;15.70;;;7.70;;
4468;SDS011;2247;42.666;23.292;2023-03-20T02:16:22;12.97;;;7.97;;
4468;SDS011;2247;42.666;23.292;2023-03-20T02:18:50;15.53;;;7.83;;
4468;SDS011;2247;42.666;23.292;2023-03-20T02:21:26;11.83;;;8.00;;
4468;SDS011;2247;42.666;23.292;2023-03-20T02:27:19;16.23;;;8.57;;
4468;SDS011;2247;42.666;23.292;2023-03-20T02:33:01;13.33;;;7.40;;
4468;SDS011;2247;42.666;23.292;2023-03-20T02:36:09;15.47;;;9.33;;
4468;SDS011;2247;42.666;23.292;2023-03-20T02:38:59;15.07;;;8.00;;
4468;SDS011;2247;42.666;23.292;2023-03-20T02:41:36;14.10;;;8.57;;
4468;SDS011;2247;42.666;23.292;2023-03-20T02:44:10;15.67;;;9.47;;
4468;SDS011;2247;42.666;23.292;2023-03-20T02:46:43;15.10;;;8.13;;
4468;SDS011;2247;42.666;23.292;2023-03-20T02:49:20;11.67;;;7.50;;
4468;SDS011;2247;42.666;23.292;2023-03-20T02:51:57;13.97;;;8.40;;
4468;SDS011;2247;42.666;23.292;2023-03-20T02:54:32;13.13;;;8.20;;
4468;SDS011;2247;42.666;23.292;2023-03-20T02:57:10;12.60;;;8.40;;
4468;SDS011;2247;42.666;23.292;2023-03-20T02:59:46;13.33;;;8.40;;
4468;SDS011;2247;42.666;23.292;2023-03-20T03:02:21;12.40;;;8.00;;
4468;SDS011;2247;42.666;23.292;2023-03-20T03:04:55;17.40;;;8.77;;
4468;SDS011;2247;42.666;23.292;2023-03-20T03:07:27;12.47;;;8.97;;
4468;SDS011;2247;42.666;23.292;2023-03-20T03:09:59;14.90;;;8.40;;
4468;SDS011;2247;42.666;23.292;2023-03-20T03:12:30;14.87;;;8.77;;
4468;SDS011;2247;42.666;23.292;2023-03-20T03:15:01;16.93;;;9.27;;
4468;SDS011;2247;42.666;23.292;2023-03-20T03:17:33;18.20;;;9.17;;
4468;SDS011;2247;42.666;23.292;2023-03-20T03:20:04;17.50;;;9.10;;
4468;SDS011;2247;42.666;23.292;2023-03-20T03:22:35;15.37;;;9.40;;
4468;SDS011;2247;42.666;23.292;2023-03-20T03:25:03;14.83;;;8.23;;
4468;SDS011;2247;42.666;23.292;2023-03-20T03:27:32;16.87;;;9.07;;
4468;SDS011;2247;42.666;23.292;2023-03-20T03:30:03;12.97;;;8.37;;
4468;SDS011;2247;42.666;23.292;2023-03-20T03:32:34;14.97;;;10.20;;
4468;SDS011;2247;42.666;23.292;2023-03-20T03:35:06;18.67;;;9.63;;
4468;SDS011;2247;42.666;23.292;2023-03-20T03:37:42;18.83;;;10.40;;
4468;SDS011;2247;42.666;23.292;2023-03-20T03:40:19;18.40;;;10.10;;
4468;SDS011;2247;42.666;23.292;2023-03-20T03:42:57;21.07;;;11.67;;
4468;SDS011;2247;42.666;23.292;2023-03-20T03:45:28;20.40;;;11.60;;
4468;SDS011;2247;42.666;23.292;2023-03-20T03:48:00;20.90;;;11.13;;
4468;SDS011;2247;42.666;23.292;2023-03-20T03:50:31;20.53;;;12.33;;
4468;SDS011;2247;42.666;23.292;2023-03-20T03:53:02;18.87;;;11.97;;
4468;SDS011;2247;42.666;23.292;2023-03-20T03:55:36;22.00;;;12.00;;
4468;SDS011;2247;42.666;23.292;2023-03-20T03:58:07;24.67;;;11.77;;
4468;SDS011;2247;42.666;23.292;2023-03-20T04:00:39;18.93;;;10.80;;
4468;SDS011;2247;42.666;23.292;2023-03-20T04:03:09;16.97;;;10.97;;
4468;SDS011;2247;42.666;23.292;2023-03-20T04:05:37;18.10;;;11.30;;
4468;SDS011;2247;42.666;23.292;2023-03-20T04:08:08;17.70;;;11.07;;
4468;SDS011;2247;42.666;23.292;2023-03-20T04:10:36;18.53;;;10.33;;
4468;SDS011;2247;42.666;23.292;2023-03-20T04:13:03;19.13;;;9.73;;
4468;SDS011;2247;42.666;23.292;2023-03-20T04:15:30;18.70;;;10.77;;
4468;SDS011;2247;42.666;23.292;2023-03-20T04:17:56;20.57;;;9.20;;
4468;SDS011;2247;42.666;23.292;2023-03-20T04:20:23;13.13;;;8.83;;
4468;SDS011;2247;42.666;23.292;2023-03-20T04:22:50;15.87;;;9.50;;
4468;SDS011;2247;42.666;23.292;2023-03-20T04:25:18;14.50;;;7.80;;
4468;SDS011;2247;42.666;23.292;2023-03-20T04:27:49;15.83;;;7.57;;
4468;SDS011;2247;42.666;23.292;2023-03-20T04:30:16;12.77;;;8.20;;
4468;SDS011;2247;42.666;23.292;2023-03-20T04:32:43;14.47;;;8.23;;
4468;SDS011;2247;42.666;23.292;2023-03-20T04:35:10;23.13;;;9.03;;
4468;SDS011;2247;42.666;23.292;2023-03-20T04:37:37;20.37;;;9.20;;
4468;SDS011;2247;42.666;23.292;2023-03-20T04:40:04;19.87;;;10.60;;
4468;SDS011;2247;42.666;23.292;2023-03-20T04:42:32;18.43;;;11.60;;
4468;SDS011;2247;42.666;23.292;2023-03-20T04:45:00;19.40;;;11.50;;
4468;SDS011;2247;42.666;23.292;2023-03-20T04:47:27;25.10;;;11.80;;
4468;SDS011;2247;42.666;23.292;2023-03-20T04:49:54;18.80;;;10.77;;
4468;SDS011;2247;42.666;23.292;2023-03-20T04:52:21;19.53;;;11.03;;
4468;SDS011;2247;42.666;23.292;2023-03-20T04:54:48;20.37;;;10.77;;
4468;SDS011;2247;42.666;23.292;2023-03-20T04:57:15;17.03;;;11.00;;
4468;SDS011;2247;42.666;23.292;2023-03-20T04:59:42;16.20;;;10.00;;
4468;SDS011;2247;42.666;23.292;2023-03-20T05:02:11;21.60;;;10.73;;
4468;SDS011;2247;42.666;23.292;2023-03-20T05:04:39;22.93;;;10.90;;
4468;SDS011;2247;42.666;23.292;2023-03-20T05:07:06;19.50;;;10.67;;
4468;SDS011;2247;42.666;23.292;2023-03-20T05:09:33;21.33;;;10.73;;
4468;SDS011;2247;42.666;23.292;2023-03-20T05:12:00;24.67;;;9.77;;
4468;SDS011;2247;42.666;23.292;2023-03-20T05:14:27;26.17;;;10.90;;
4468;SDS011;2247;42.666;23.292;2023-03-20T05:16:54;31.43;;;10.80;;
4468;SDS011;2247;42.666;23.292;2023-03-20T05:19:22;17.40;;;10.30;;
4468;SDS011;2247;42.666;23.292;2023-03-20T05:21:50;25.80;;;11.80;;
4468;SDS011;2247;42.666;23.292;2023-03-20T05:24:17;28.13;;;11.77;;
4468;SDS011;2247;42.666;23.292;2023-03-20T05:26:45;20.97;;;11.03;;
4468;SDS011;2247;42.666;23.292;2023-03-20T05:29:12;25.30;;;11.97;;
4468;SDS011;2247;42.666;23.292;2023-03-20T05:31:40;26.83;;;11.10;;
4468;SDS011;2247;42.666;23.292;2023-03-20T05:34:07;38.10;;;11.00;;
4468;SDS011;2247;42.666;23.292;2023-03-20T05:36:36;40.30;;;12.40;;
4468;SDS011;2247;42.666;23.292;2023-03-20T05:39:03;30.30;;;12.27;;
4468;SDS011;2247;42.666;23.292;2023-03-20T05:41:30;29.43;;;12.70;;
4468;SDS011;2247;42.666;23.292;2023-03-20T05:43:57;24.43;;;11.80;;
4468;SDS011;2247;42.666;23.292;2023-03-20T05:46:25;30.20;;;11.87;;
4468;SDS011;2247;42.666;23.292;2023-03-20T05:48:53;24.33;;;12.03;;
4468;SDS011;2247;42.666;23.292;2023-03-20T05:51:21;25.37;;;11.97;;
4468;SDS011;2247;42.666;23.292;2023-03-20T05:59:00;24.00;;;12.80;;
4468;SDS011;2247;42.666;23.292;2023-03-20T06:03:58;23.20;;;13.47;;
4468;SDS011;2247;42.666;23.292;2023-03-20T06:06:25;21.70;;;12.40;;
4468;SDS011;2247;42.666;23.292;2023-03-20T06:08:52;24.20;;;13.00;;
4468;SDS011;2247;42.666;23.292;2023-03-20T06:11:19;32.83;;;13.00;;
4468;SDS011;2247;42.666;23.292;2023-03-20T06:13:48;27.60;;;14.43;;
4468;SDS011;2247;42.666;23.292;2023-03-20T06:16:20;26.70;;;13.73;;
4468;SDS011;2247;42.666;23.292;2023-03-20T06:18:47;31.20;;;14.43;;
4468;SDS011;2247;42.666;23.292;2023-03-20T06:21:14;25.30;;;15.60;;
4468;SDS011;2247;42.666;23.292;2023-03-20T06:23:41;31.30;;;16.00;;
4468;SDS011;2247;42.666;23.292;2023-03-20T06:26:08;32.97;;;15.57;;
4468;SDS011;2247;42.666;23.292;2023-03-20T06:28:36;40.43;;;17.33;;
4468;SDS011;2247;42.666;23.292;2023-03-20T06:31:03;43.00;;;17.10;;
4468;SDS011;2247;42.666;23.292;2023-03-20T06:33:31;33.60;;;18.40;;
4468;SDS011;2247;42.666;23.292;2023-03-20T06:35:59;35.30;;;16.90;;
4468;SDS011;2247;42.666;23.292;2023-03-20T06:38:26;33.53;;;17.80;;
4468;SDS011;2247;42.666;23.292;2023-03-20T06:40:53;33.70;;;17.03;;
4468;SDS011;2247;42.666;23.292;2023-03-20T06:43:20;40.73;;;17.37;;
4468;SDS011;2247;42.666;23.292;2023-03-20T06:45:47;34.30;;;18.37;;
4468;SDS011;2247;42.666;23.292;2023-03-20T06:48:13;36.00;;;19.87;;
4468;SDS011;2247;42.666;23.292;2023-03-20T06:50:47;29.10;;;16.70;;
4468;SDS011;2247;42.666;23.292;2023-03-20T06:53:14;33.13;;;17.70;;
4468;SDS011;2247;42.666;23.292;2023-03-20T06:55:42;33.63;;;18.20;;
4468;SDS011;2247;42.666;23.292;2023-03-20T06:58:13;34.07;;;17.97;;
4468;SDS011;2247;42.666;23.292;2023-03-20T07:00:41;48.10;;;21.73;;
4468;SDS011;2247;42.666;23.292;2023-03-20T07:03:13;45.60;;;18.57;;
4468;SDS011;2247;42.666;23.292;2023-03-20T07:05:41;35.80;;;18.00;;
4468;SDS011;2247;42.666;23.292;2023-03-20T07:08:12;40.97;;;16.70;;
4468;SDS011;2247;42.666;23.292;2023-03-20T07:10:41;28.23;;;17.10;;
4468;SDS011;2247;42.666;23.292;2023-03-20T07:13:10;32.07;;;18.40;;
4468;SDS011;2247;42.666;23.292;2023-03-20T07:15:39;35.17;;;17.57;;
4468;SDS011;2247;42.666;23.292;2023-03-20T07:18:06;29.73;;;18.60;;
4468;SDS011;2247;42.666;23.292;2023-03-20T07:20:34;48.03;;;20.00;;
4468;SDS011;2247;42.666;23.292;2023-03-20T07:23:01;28.00;;;15.93;;
4468;SDS011;2247;42.666;23.292;2023-03-20T07:25:32;33.30;;;16.63;;
4468;SDS011;2247;42.666;23.292;2023-03-20T07:28:00;26.30;;;16.10;;
4468;SDS011;2247;42.666;23.292;2023-03-20T07:30:30;25.23;;;15.10;;
4468;SDS011;2247;42.666;23.292;2023-03-20T07:32:59;33.07;;;17.17;;
4468;SDS011;2247;42.666;23.292;2023-03-20T07:35:27;35.90;;;16.90;;
4468;SDS011;2247;42.666;23.292;2023-03-20T07:37:56;24.43;;;15.73;;
4468;SDS011;2247;42.666;23.292;2023-03-20T07:40:24;31.77;;;13.80;;
4468;SDS011;2247;42.666;23.292;2023-03-20T07:42:52;29.70;;;15.40;;
4468;SDS011;2247;42.666;23.292;2023-03-20T07:45:19;21.27;;;12.70;;
4468;SDS011;2247;42.666;23.292;2023-03-20T07:47:46;22.67;;;14.80;;
4468;SDS011;2247;42.666;23.292;2023-03-20T07:50:13;29.43;;;13.77;;
4468;SDS011;2247;42.666;23.292;2023-03-20T07:52:44;26.67;;;15.00;;
4468;SDS011;2247;42.666;23.292;2023-03-20T07:55:11;23.23;;;14.83;;
4468;SDS011;2247;42.666;23.292;2023-03-20T07:57:38;28.10;;;16.50;;
4468;SDS011;2247;42.666;23.292;2023-03-20T08:00:10;33.80;;;14.97;;
4468;SDS011;2247;42.666;23.292;2023-03-20T08:02:38;26.43;;;15.53;;
4468;SDS011;2247;42.666;23.292;2023-03-20T08:05:07;29.23;;;15.17;;
4468;SDS011;2247;42.666;23.292;2023-03-20T08:07:35;24.80;;;14.27;;
4468;SDS011;2247;42.666;23.292;2023-03-20T08:10:03;22.47;;;14.40;;
4468;SDS011;2247;42.666;23.292;2023-03-20T08:12:32;25.83;;;14.40;;
4468;SDS011;2247;42.666;23.292;2023-03-20T08:15:00;19.00;;;13.70;;
4468;SDS011;2247;42.666;23.292;2023-03-20T08:17:28;70.77;;;14.57;;
4468;SDS011;2247;42.666;23.292;2023-03-20T08:19:55;30.53;;;14.77;;
4468;SDS011;2247;42.666;23.292;2023-03-20T08:22:22;30.27;;;15.20;;
4468;SDS011;2247;42.666;23.292;2023-03-20T08:24:49;24.70;;;14.03;;
4468;SDS011;2247;42.666;23.292;2023-03-20T08:27:16;24.33;;;14.67;;
4468;SDS011;2247;42.666;23.292;2023-03-20T08:29:43;21.70;;;13.30;;
4468;SDS011;2247;42.666;23.292;2023-03-20T08:32:11;18.90;;;12.60;;
4468;SDS011;2247;42.666;23.292;2023-03-20T08:34:41;21.60;;;13.23;;
4468;SDS011;2247;42.666;23.292;2023-03-20T08:37:10;20.50;;;12.07;;
4468;SDS011;2247;42.666;23.292;2023-03-20T08:39:46;19.93;;;11.90;;
4468;SDS011;2247;42.666;23.292;2023-03-20T08:42:14;20.87;;;11.03;;
4468;SDS011;2247;42.666;23.292;2023-03-20T08:44:41;18.27;;;11.50;;
4468;SDS011;2247;42.666;23.292;2023-03-20T08:47:09;21.43;;;12.43;;
4468;SDS011;2247;42.666;23.292;2023-03-20T08:49:36;20.77;;;12.53;;
4468;SDS011;2247;42.666;23.292;2023-03-20T08:52:06;28.00;;;12.03;;
4468;SDS011;2247;42.666;23.292;2023-03-20T08:54:34;22.90;;;12.50;;
4468;SDS011;2247;42.666;23.292;2023-03-20T08:57:01;25.43;;;12.60;;
4468;SDS011;2247;42.666;23.292;2023-03-20T08:59:28;18.03;;;12.20;;
4468;SDS011;2247;42.666;23.292;2023-03-20T09:04:45;20.40;;;13.93;;
4468;SDS011;2247;42.666;23.292;2023-03-20T09:07:13;31.07;;;14.57;;
4468;SDS011;2247;42.666;23.292;2023-03-20T09:09:40;26.87;;;13.70;;
4468;SDS011;2247;42.666;23.292;2023-03-20T09:12:07;23.90;;;14.10;;
4468;SDS011;2247;42.666;23.292;2023-03-20T09:14:34;24.00;;;14.77;;
4468;SDS011;2247;42.666;23.292;2023-03-20T09:17:02;29.23;;;15.27;;
4468;SDS011;2247;42.666;23.292;2023-03-20T09:19:30;21.80;;;14.40;;
4468;SDS011;2247;42.666;23.292;2023-03-20T09:21:57;26.60;;;14.90;;
4468;SDS011;2247;42.666;23.292;2023-03-20T09:24:25;25.20;;;15.43;;
4468;SDS011;2247;42.666;23.292;2023-03-20T09:26:53;23.30;;;15.57;;
4468;SDS011;2247;42.666;23.292;2023-03-20T09:29:20;26.30;;;16.13;;
4468;SDS011;2247;42.666;23.292;2023-03-20T09:31:47;22.97;;;15.27;;
4468;SDS011;2247;42.666;23.292;2023-03-20T09:34:14;26.47;;;15.10;;
4468;SDS011;2247;42.666;23.292;2023-03-20T09:36:41;22.23;;;14.50;;
4468;SDS011;2247;42.666;23.292;2023-03-20T09:39:09;23.07;;;14.77;;
4468;SDS011;2247;42.666;23.292;2023-03-20T09:41:38;21.73;;;14.47;;
4468;SDS011;2247;42.666;23.292;2023-03-20T09:44:08;25.17;;;14.40;;
4468;SDS011;2247;42.666;23.292;2023-03-20T09:46:45;36.13;;;16.37;;
4468;SDS011;2247;42.666;23.292;2023-03-20T09:49:29;23.50;;;15.40;;
4468;SDS011;2247;42.666;23.292;2023-03-20T09:52:09;24.63;;;15.77;;
4468;SDS011;2247;42.666;23.292;2023-03-20T09:54:46;30.43;;;16.27;;
4468;SDS011;2247;42.666;23.292;2023-03-20T09:57:18;29.13;;;14.90;;
4468;SDS011;2247;42.666;23.292;2023-03-20T09:59:49;26.70;;;15.27;;
4468;SDS011;2247;42.666;23.292;2023-03-20T10:02:22;29.70;;;15.90;;
4468;SDS011;2247;42.666;23.292;2023-03-20T10:04:59;29.97;;;15.43;;
4468;SDS011;2247;42.666;23.292;2023-03-20T10:07:28;26.30;;;16.57;;
4468;SDS011;2247;42.666;23.292;2023-03-20T10:09:55;31.63;;;16.07;;
4468;SDS011;2247;42.666;23.292;2023-03-20T10:15:15;40.17;;;16.47;;
4468;SDS011;2247;42.666;23.292;2023-03-20T10:17:52;35.13;;;14.90;;
4468;SDS011;2247;42.666;23.292;2023-03-20T10:20:29;24.80;;;14.87;;
4468;SDS011;2247;42.666;23.292;2023-03-20T10:23:03;23.53;;;15.10;;
4468;SDS011;2247;42.666;23.292;2023-03-20T10:25:34;22.23;;;14.77;;
4468;SDS011;2247;42.666;23.292;2023-03-20T10:28:11;29.13;;;14.97;;
4468;SDS011;2247;42.666;23.292;2023-03-20T10:30:48;26.43;;;15.10;;
4468;SDS011;2247;42.666;23.292;2023-03-20T10:33:28;24.90;;;16.20;;
4468;SDS011;2247;42.666;23.292;2023-03-20T10:36:09;23.33;;;14.60;;
4468;SDS011;2247;42.666;23.292;2023-03-20T10:38:50;23.97;;;14.60;;
4468;SDS011;2247;42.666;23.292;2023-03-20T10:41:26;27.63;;;14.30;;
4468;SDS011;2247;42.666;23.292;2023-03-20T10:43:59;34.53;;;15.00;;
4468;SDS011;2247;42.666;23.292;2023-03-20T10:46:28;30.17;;;14.80;;
4468;SDS011;2247;42.666;23.292;2023-03-20T10:48:59;27.30;;;13.47;;
4468;SDS011;2247;42.666;23.292;2023-03-20T10:51:34;24.63;;;13.90;;
4468;SDS011;2247;42.666;23.292;2023-03-20T10:54:05;25.70;;;15.40;;
4468;SDS011;2247;42.666;23.292;2023-03-20T10:56:43;28.13;;;13.83;;
4468;SDS011;2247;42.666;23.292;2023-03-20T10:59:16;25.20;;;13.80;;
4468;SDS011;2247;42.666;23.292;2023-03-20T11:01:48;32.63;;;15.27;;
4468;SDS011;2247;42.666;23.292;2023-03-20T11:04:15;32.60;;;14.23;;
4468;SDS011;2247;42.666;23.292;2023-03-20T11:06:45;24.50;;;14.00;;
4468;SDS011;2247;42.666;23.292;2023-03-20T11:09:18;22.27;;;13.10;;
4468;SDS011;2247;42.666;23.292;2023-03-20T11:11:47;24.57;;;13.43;;
4468;SDS011;2247;42.666;23.292;2023-03-20T11:14:19;27.53;;;15.00;;
4468;SDS011;2247;42.666;23.292;2023-03-20T11:16:47;27.33;;;13.37;;
4468;SDS011;2247;42.666;23.292;2023-03-20T11:19:17;27.87;;;14.10;;
4468;SDS011;2247;42.666;23.292;2023-03-20T11:21:47;23.10;;;13.40;;
4468;SDS011;2247;42.666;23.292;2023-03-20T11:24:21;20.50;;;13.23;;
4468;SDS011;2247;42.666;23.292;2023-03-20T11:26:52;23.70;;;13.80;;
4468;SDS011;2247;42.666;23.292;2023-03-20T11:29:22;23.80;;;13.13;;
4468;SDS011;2247;42.666;23.292;2023-03-20T11:31:58;21.30;;;13.30;;
4468;SDS011;2247;42.666;23.292;2023-03-20T11:34:30;29.87;;;15.90;;
4468;SDS011;2247;42.666;23.292;2023-03-20T11:37:05;19.97;;;13.60;;
4468;SDS011;2247;42.666;23.292;2023-03-20T11:39:32;21.30;;;14.43;;
4468;SDS011;2247;42.666;23.292;2023-03-20T11:42:01;19.07;;;12.87;;
4468;SDS011;2247;42.666;23.292;2023-03-20T11:44:31;21.00;;;13.23;;
4468;SDS011;2247;42.666;23.292;2023-03-20T11:47:00;25.63;;;13.80;;
4468;SDS011;2247;42.666;23.292;2023-03-20T11:49:29;24.10;;;13.90;;
4468;SDS011;2247;42.666;23.292;2023-03-20T11:51:58;26.47;;;14.63;;
4468;SDS011;2247;42.666;23.292;2023-03-20T11:54:28;23.90;;;13.97;;
4468;SDS011;2247;42.666;23.292;2023-03-20T11:56:56;22.70;;;12.50;;
4468;SDS011;2247;42.666;23.292;2023-03-20T11:59:25;23.07;;;12.73;;
4468;SDS011;2247;42.666;23.292;2023-03-20T12:01:57;22.13;;;13.40;;
4468;SDS011;2247;42.666;23.292;2023-03-20T12:04:26;19.87;;;11.93;;
4468;SDS011;2247;42.666;23.292;2023-03-20T12:06:55;20.67;;;12.73;;
4468;SDS011;2247;42.666;23.292;2023-03-20T12:09:27;22.23;;;10.80;;
4468;SDS011;2247;42.666;23.292;2023-03-20T12:11:59;15.63;;;11.07;;
4468;SDS011;2247;42.666;23.292;2023-03-20T12:14:33;16.93;;;10.20;;
4468;SDS011;2247;42.666;23.292;2023-03-20T12:17:18;30.83;;;10.90;;
4468;SDS011;2247;42.666;23.292;2023-03-20T12:20:01;19.33;;;9.20;;
4468;SDS011;2247;42.666;23.292;2023-03-20T12:22:34;20.60;;;10.70;;
4468;SDS011;2247;42.666;23.292;2023-03-20T12:25:07;19.97;;;10.90;;
4468;SDS011;2247;42.666;23.292;2023-03-20T12:27:45;22.40;;;11.30;;
4468;SDS011;2247;42.666;23.292;2023-03-20T12:30:18;17.40;;;9.67;;
4468;SDS011;2247;42.666;23.292;2023-03-20T12:32:59;11.93;;;8.10;;
4468;SDS011;2247;42.666;23.292;2023-03-20T12:35:33;18.00;;;8.87;;
4468;SDS011;2247;42.666;23.292;2023-03-20T12:38:03;23.13;;;9.63;;
4468;SDS011;2247;42.666;23.292;2023-03-20T12:40:42;14.77;;;8.37;;
4468;SDS011;2247;42.666;23.292;2023-03-20T12:43:11;15.10;;;7.57;;
4468;SDS011;2247;42.666;23.292;2023-03-20T12:45:41;13.87;;;7.30;;
4468;SDS011;2247;42.666;23.292;2023-03-20T12:51:15;13.40;;;6.20;;
4468;SDS011;2247;42.666;23.292;2023-03-20T12:53:52;10.00;;;6.47;;
4468;SDS011;2247;42.666;23.292;2023-03-20T12:56:28;9.40;;;5.33;;
4468;SDS011;2247;42.666;23.292;2023-03-20T12:59:12;13.67;;;5.47;;
4468;SDS011;2247;42.666;23.292;2023-03-20T13:01:49;10.40;;;4.87;;
4468;SDS011;2247;42.666;23.292;2023-03-20T13:04:34;14.20;;;5.03;;
4468;SDS011;2247;42.666;23.292;2023-03-20T13:07:18;10.50;;;5.70;;
4468;SDS011;2247;42.666;23.292;2023-03-20T13:09:49;9.77;;;4.60;;
4468;SDS011;2247;42.666;23.292;2023-03-20T13:12:28;10.80;;;4.67;;
4468;SDS011;2247;42.666;23.292;2023-03-20T13:15:06;8.40;;;4.80;;
4468;SDS011;2247;42.666;23.292;2023-03-20T13:17:49;6.27;;;4.03;;
4468;SDS011;2247;42.666;23.292;2023-03-20T13:20:20;5.80;;;3.90;;
4468;SDS011;2247;42.666;23.292;2023-03-20T13:22:58;13.53;;;4.07;;
4468;SDS011;2247;42.666;23.292;2023-03-20T13:25:46;9.97;;;3.87;;
4468;SDS011;2247;42.666;23.292;2023-03-20T13:28:26;4.60;;;4.03;;
4468;SDS011;2247;42.666;23.292;2023-03-20T13:31:00;9.60;;;4.33;;
4468;SDS011;2247;42.666;23.292;2023-03-20T13:33:42;14.07;;;4.07;;
4468;SDS011;2247;42.666;23.292;2023-03-20T13:36:22;9.30;;;4.00;;
4468;SDS011;2247;42.666;23.292;2023-03-20T13:38:59;9.77;;;4.00;;
4468;SDS011;2247;42.666;23.292;2023-03-20T13:41:31;5.83;;;4.13;;
4468;SDS011;2247;42.666;23.292;2023-03-20T13:44:04;5.63;;;3.83;;
4468;SDS011;2247;42.666;23.292;2023-03-20T13:46:38;8.30;;;4.10;;
4468;SDS011;2247;42.666;23.292;2023-03-20T13:49:11;5.60;;;4.33;;
4468;SDS011;2247;42.666;23.292;2023-03-20T13:51:43;8.73;;;4.43;;
4468;SDS011;2247;42.666;23.292;2023-03-20T13:54:25;7.27;;;3.87;;
4468;SDS011;2247;42.666;23.292;2023-03-20T13:57:04;5.43;;;4.00;;
4468;SDS011;2247;42.666;23.292;2023-03-20T13:59:45;4.60;;;4.10;;
4468;SDS011;2247;42.666;23.292;2023-03-20T14:02:27;11.40;;;4.40;;
4468;SDS011;2247;42.666;23.292;2023-03-20T14:05:02;5.27;;;4.00;;
4468;SDS011;2247;42.666;23.292;2023-03-20T14:07:32;7.17;;;3.90;;
4468;SDS011;2247;42.666;23.292;2023-03-20T14:13:05;8.27;;;3.67;;
4468;SDS011;2247;42.666;23.292;2023-03-20T14:15:39;7.90;;;3.77;;
4468;SDS011;2247;42.666;23.292;2023-03-20T14:18:14;5.40;;;3.73;;
4468;SDS011;2247;42.666;23.292;2023-03-20T14:20:42;9.20;;;4.13;;
4468;SDS011;2247;42.666;23.292;2023-03-20T14:23:17;4.33;;;3.93;;
4468;SDS011;2247;42.666;23.292;2023-03-20T14:25:54;6.03;;;3.93;;
4468;SDS011;2247;42.666;23.292;2023-03-20T14:28:24;6.33;;;4.20;;
4468;SDS011;2247;42.666;23.292;2023-03-20T14:31:12;5.37;;;3.43;;
4468;SDS011;2247;42.666;23.292;2023-03-20T14:33:48;6.30;;;3.87;;
4468;SDS011;2247;42.666;23.292;2023-03-20T14:36:20;5.93;;;3.70;;
4468;SDS011;2247;42.666;23.292;2023-03-20T14:38:56;5.80;;;3.80;;
4468;SDS011;2247;42.666;23.292;2023-03-20T14:41:36;5.80;;;3.80;;
4468;SDS011;2247;42.666;23.292;2023-03-20T14:44:16;8.87;;;4.10;;
4468;SDS011;2247;42.666;23.292;2023-03-20T14:46:53;6.50;;;4.10;;
4468;SDS011;2247;42.666;23.292;2023-03-20T14:49:32;4.30;;;3.70;;
4468;SDS011;2247;42.666;23.292;2023-03-20T14:52:14;10.60;;;3.77;;
4468;SDS011;2247;42.666;23.292;2023-03-20T14:54:51;6.57;;;4.13;;
4468;SDS011;2247;42.666;23.292;2023-03-20T14:57:24;7.37;;;4.43;;
4468;SDS011;2247;42.666;23.292;2023-03-20T14:59:55;5.60;;;3.90;;
4468;SDS011;2247;42.666;23.292;2023-03-20T15:02:23;5.30;;;3.80;;
4468;SDS011;2247;42.666;23.292;2023-03-20T15:04:53;5.83;;;3.80;;
4468;SDS011;2247;42.666;23.292;2023-03-20T15:07:22;6.23;;;3.60;;
4468;SDS011;2247;42.666;23.292;2023-03-20T15:09:52;8.10;;;4.10;;
4468;SDS011;2247;42.666;23.292;2023-03-20T15:12:25;6.70;;;4.00;;
4468;SDS011;2247;42.666;23.292;2023-03-20T15:14:54;12.10;;;3.67;;
4468;SDS011;2247;42.666;23.292;2023-03-20T15:17:24;5.27;;;3.67;;
4468;SDS011;2247;42.666;23.292;2023-03-20T15:20:00;6.10;;;4.00;;
4468;SDS011;2247;42.666;23.292;2023-03-20T15:22:28;7.00;;;3.80;;
4468;SDS011;2247;42.666;23.292;2023-03-20T15:24:55;6.00;;;3.80;;
4468;SDS011;2247;42.666;23.292;2023-03-20T15:27:23;5.70;;;3.73;;
4468;SDS011;2247;42.666;23.292;2023-03-20T15:29:54;8.03;;;4.80;;